createdAt,value
2022-11-02T00:01:40.780Z,24.57
2022-11-02T00:04:25.767Z,24.77
2022-11-02T00:07:10.656Z,25.30
2022-11-02T00:09:55.629Z,23.90
2022-11-02T00:12:40.607Z,24.67
2022-11-02T00:15:28.666Z,23.13
2022-11-02T00:18:14.822Z,24.23
2022-11-02T00:21:01.481Z,22.63
2022-11-02T00:23:47.560Z,22.27
2022-11-02T00:26:34.938Z,22.70
2022-11-02T00:29:21.508Z,22.73
2022-11-02T00:32:06.520Z,21.53
2022-11-02T00:34:51.448Z,21.43
2022-11-02T00:37:36.784Z,20.43
2022-11-02T00:40:22.096Z,20.73
2022-11-02T00:43:07.269Z,22.70
2022-11-02T00:45:52.592Z,21.97
2022-11-02T00:48:37.625Z,20.50
2022-11-02T00:51:23.519Z,19.87
2022-11-02T00:54:08.900Z,20.20
2022-11-02T00:56:54.186Z,19.47
2022-11-02T00:59:39.697Z,20.13
2022-11-02T01:02:26.849Z,18.93
2022-11-02T01:05:12.323Z,20.47
2022-11-02T01:07:58.493Z,19.00
2022-11-02T01:10:48.116Z,19.17
2022-11-02T01:13:34.905Z,17.90
2022-11-02T01:16:20.392Z,18.20
2022-11-02T01:19:05.286Z,18.00
2022-11-02T01:21:50.126Z,16.13
2022-11-02T01:24:35.543Z,16.80
2022-11-02T01:27:21.249Z,16.20
2022-11-02T01:30:06.841Z,16.73
2022-11-02T01:32:51.760Z,16.07
2022-11-02T01:35:36.953Z,16.40
2022-11-02T01:38:22.270Z,15.70
2022-11-02T01:41:07.374Z,16.73
2022-11-02T01:43:56.759Z,15.63
2022-11-02T01:46:45.338Z,16.17
2022-11-02T01:49:35.810Z,14.57
2022-11-02T01:52:32.797Z,14.40
2022-11-02T01:55:26.123Z,14.50
2022-11-02T01:58:12.358Z,14.37
2022-11-02T02:00:57.389Z,14.63
2022-11-02T02:03:43.661Z,15.47
2022-11-02T02:06:29.017Z,13.70
2022-11-02T02:09:14.818Z,12.07
2022-11-02T02:12:00.362Z,13.77
2022-11-02T02:14:45.396Z,13.33
2022-11-02T02:17:49.386Z,12.87
2022-11-02T02:20:43.900Z,14.50
2022-11-02T02:24:09.171Z,12.93
2022-11-02T02:27:07.766Z,12.37
2022-11-02T02:30:01.834Z,11.97
2022-11-02T02:32:51.353Z,11.83
2022-11-02T02:35:45.490Z,12.40
2022-11-02T02:38:41.764Z,12.40
2022-11-02T02:41:40.893Z,12.17
2022-11-02T02:44:33.530Z,11.87
2022-11-02T02:47:24.624Z,11.77
2022-11-02T02:50:24.055Z,11.13
2022-11-02T02:53:10.385Z,11.37
2022-11-02T02:56:00.220Z,10.30
2022-11-02T02:58:52.714Z,11.10
2022-11-02T03:01:40.551Z,10.13
2022-11-02T03:04:26.818Z,10.03
2022-11-02T03:07:18.702Z,10.67
2022-11-02T03:10:31.099Z,8.90
2022-11-02T03:13:41.295Z,9.57
2022-11-02T03:17:04.566Z,9.23
2022-11-02T03:19:55.421Z,9.20
2022-11-02T03:23:26.105Z,9.77
2022-11-02T03:26:33.207Z,8.53
2022-11-02T03:29:26.383Z,9.10
2022-11-02T03:32:22.528Z,8.27
2022-11-02T03:35:16.979Z,8.40
2022-11-02T03:38:13.482Z,8.77
2022-11-02T03:41:01.326Z,9.00
2022-11-02T03:43:48.452Z,8.80
2022-11-02T03:46:37.362Z,8.17
2022-11-02T03:49:24.693Z,8.37
2022-11-02T03:52:23.328Z,7.97
2022-11-02T03:55:17.937Z,7.40
2022-11-02T03:58:03.699Z,8.63
2022-11-02T04:00:55.917Z,7.67
2022-11-02T04:03:45.571Z,8.07
2022-11-02T04:06:32.268Z,6.90
2022-11-02T04:09:17.685Z,7.17
2022-11-02T04:12:21.983Z,7.60
2022-11-02T04:15:07.974Z,6.60
2022-11-02T04:18:12.191Z,7.43
2022-11-02T04:20:57.393Z,7.70
2022-11-02T04:24:01.577Z,7.00
2022-11-02T04:26:46.730Z,6.80
2022-11-02T04:29:34.898Z,6.53
2022-11-02T04:32:39.121Z,6.57
2022-11-02T04:35:28.370Z,6.50
2022-11-02T04:38:31.905Z,6.03
2022-11-02T04:41:38.498Z,5.77
2022-11-02T04:44:28.947Z,6.10
2022-11-02T04:47:20.837Z,6.27
2022-11-02T04:50:06.478Z,6.80
2022-11-02T04:52:57.233Z,5.43
2022-11-02T04:55:46.008Z,5.50
2022-11-02T04:58:32.570Z,6.03
2022-11-02T05:01:20.017Z,6.23
2022-11-02T05:04:06.233Z,6.37
2022-11-02T05:06:55.405Z,5.73
2022-11-02T05:09:43.212Z,5.77
2022-11-02T05:12:29.949Z,5.77
2022-11-02T05:15:17.624Z,5.57
2022-11-02T05:18:03.131Z,5.90
2022-11-02T05:20:56.861Z,5.47
2022-11-02T05:23:44.574Z,5.53
2022-11-02T05:26:29.453Z,5.73
2022-11-02T05:29:14.389Z,4.60
2022-11-02T05:31:59.743Z,5.87
2022-11-02T05:34:44.461Z,5.13
2022-11-02T05:37:30.121Z,4.87
2022-11-02T05:40:15.886Z,4.80
2022-11-02T05:43:01.705Z,5.73
2022-11-02T05:45:58.882Z,4.50
2022-11-02T05:48:43.996Z,4.33
2022-11-02T05:51:28.896Z,5.30
2022-11-02T05:54:13.810Z,5.03
2022-11-02T05:56:58.737Z,4.90
2022-11-02T05:59:46.616Z,4.97
2022-11-02T06:02:34.570Z,4.50
2022-11-02T06:05:19.880Z,4.60
2022-11-02T06:08:05.444Z,4.07
2022-11-02T06:10:50.763Z,4.10
2022-11-02T06:13:36.536Z,4.60
2022-11-02T06:16:23.276Z,4.90
2022-11-02T06:19:09.081Z,4.13
2022-11-02T06:21:54.338Z,4.10
2022-11-02T06:24:39.183Z,4.13
2022-11-02T06:27:24.157Z,3.90
2022-11-02T06:30:10.000Z,3.93
2022-11-02T06:32:55.109Z,3.83
2022-11-02T06:35:40.252Z,4.33
2022-11-02T06:38:25.474Z,3.63
2022-11-02T06:41:10.659Z,3.17
2022-11-02T06:43:56.918Z,3.60
2022-11-02T06:46:41.875Z,3.60
2022-11-02T06:49:26.788Z,3.40
2022-11-02T06:52:12.110Z,2.93
2022-11-02T06:54:57.286Z,2.20
2022-11-02T06:57:43.221Z,2.07
2022-11-02T07:00:29.869Z,1.63
2022-11-02T07:03:15.351Z,1.90
2022-11-02T07:06:01.393Z,2.00
2022-11-02T07:08:46.552Z,2.23
2022-11-02T07:11:31.863Z,2.50
2022-11-02T07:14:17.095Z,2.10
2022-11-02T07:17:01.889Z,2.03
2022-11-02T07:19:46.806Z,1.70
2022-11-02T07:22:31.773Z,2.07
2022-11-02T07:25:16.894Z,1.80
2022-11-02T07:28:03.071Z,1.77
2022-11-02T07:30:48.102Z,1.87
2022-11-02T07:33:33.202Z,1.83
2022-11-02T07:36:18.280Z,1.70
2022-11-02T07:39:03.433Z,2.03
2022-11-02T07:41:51.891Z,1.97
2022-11-02T07:44:37.293Z,1.83
2022-11-02T07:47:22.519Z,2.47
2022-11-02T07:50:07.785Z,1.73
2022-11-02T07:52:55.238Z,1.93
2022-11-02T07:55:40.809Z,2.50
2022-11-02T07:58:26.902Z,2.47
2022-11-02T08:01:11.878Z,1.93
2022-11-02T08:03:58.052Z,1.83
2022-11-02T08:06:43.302Z,2.17
2022-11-02T08:09:28.259Z,1.70
2022-11-02T08:12:13.146Z,3.00
2022-11-02T08:14:58.569Z,2.37
2022-11-02T08:17:45.657Z,2.17
2022-11-02T08:20:36.335Z,2.57
2022-11-02T08:23:21.595Z,1.97
2022-11-02T08:26:06.552Z,1.80
2022-11-02T08:28:51.650Z,2.07
2022-11-02T08:31:36.465Z,2.17
2022-11-02T08:34:21.328Z,2.50
2022-11-02T08:37:07.974Z,2.53
2022-11-02T08:39:52.957Z,1.57
2022-11-02T08:42:39.062Z,1.90
2022-11-02T08:45:24.610Z,2.23
2022-11-02T08:48:09.749Z,2.00
2022-11-02T08:50:56.100Z,1.97
2022-11-02T08:53:42.345Z,1.83
2022-11-02T08:56:28.951Z,1.67
2022-11-02T08:59:13.948Z,1.63
2022-11-02T09:01:59.086Z,1.90
2022-11-02T09:04:44.409Z,1.80
2022-11-02T09:07:29.271Z,2.10
2022-11-02T09:10:14.337Z,1.50
2022-11-02T09:13:01.605Z,1.80
2022-11-02T09:15:50.146Z,1.47
2022-11-02T09:18:35.422Z,1.40
2022-11-02T09:21:20.527Z,1.80
2022-11-02T09:24:05.725Z,1.70
2022-11-02T09:26:52.929Z,1.60
2022-11-02T09:29:37.865Z,1.13
2022-11-02T09:32:22.706Z,1.63
2022-11-02T09:35:10.284Z,1.50
2022-11-02T09:37:55.154Z,1.90
2022-11-02T09:40:48.575Z,1.73
2022-11-02T09:43:58.473Z,1.47
2022-11-02T09:46:46.655Z,1.40
2022-11-02T09:49:31.894Z,1.60
2022-11-02T09:52:27.853Z,1.40
2022-11-02T09:55:21.071Z,1.70
2022-11-02T09:58:15.043Z,1.60
2022-11-02T10:01:11.729Z,1.30
2022-11-02T10:04:38.349Z,1.20
2022-11-02T10:07:29.529Z,1.37
2022-11-02T10:10:38.378Z,1.43
2022-11-02T10:13:33.295Z,1.50
2022-11-02T10:16:34.663Z,1.43
2022-11-02T10:19:23.868Z,1.73
2022-11-02T10:22:15.094Z,1.50
2022-11-02T10:25:04.150Z,1.57
2022-11-02T10:27:53.055Z,1.80
2022-11-02T10:30:39.434Z,1.50
2022-11-02T10:33:29.753Z,1.40
2022-11-02T10:36:47.274Z,1.40
2022-11-02T10:39:42.394Z,1.10
2022-11-02T10:43:06.515Z,1.60
2022-11-02T10:46:33.102Z,1.23
2022-11-02T10:49:33.397Z,1.50
2022-11-02T10:52:18.616Z,1.40
2022-11-02T10:55:04.972Z,1.10
2022-11-02T10:57:53.338Z,1.00
2022-11-02T11:00:39.357Z,1.50
2022-11-02T11:03:24.695Z,1.20
2022-11-02T11:06:12.514Z,1.60
2022-11-02T11:09:18.467Z,1.40
2022-11-02T11:12:07.006Z,1.40
2022-11-02T11:21:18.825Z,1.20
2022-11-02T11:24:29.717Z,1.10
2022-11-02T11:27:20.336Z,1.20
2022-11-02T11:30:46.152Z,1.50
2022-11-02T11:33:32.688Z,1.30
2022-11-02T11:36:33.275Z,1.17
2022-11-02T11:39:29.161Z,1.40
2022-11-02T11:42:28.252Z,1.30
2022-11-02T11:45:22.649Z,1.17
2022-11-02T11:48:30.924Z,1.00
2022-11-02T11:51:30.956Z,1.17
2022-11-02T11:54:26.807Z,1.30
2022-11-02T11:57:24.326Z,0.90
2022-11-02T12:00:30.051Z,1.70
2022-11-02T12:03:16.327Z,1.40
2022-11-02T12:06:14.634Z,1.63
2022-11-02T12:09:30.110Z,1.10
2022-11-02T12:12:51.542Z,1.30
2022-11-02T12:15:56.101Z,1.60
2022-11-02T12:18:56.517Z,1.27
2022-11-02T12:22:16.739Z,0.97
2022-11-02T12:25:06.714Z,1.47
2022-11-02T12:28:05.385Z,1.27
2022-11-02T12:31:02.726Z,1.37
2022-11-02T12:34:17.802Z,1.50
2022-11-02T12:37:41.574Z,1.40
2022-11-02T12:40:46.996Z,1.33
2022-11-02T12:43:40.076Z,1.47
2022-11-02T12:46:48.900Z,0.90
2022-11-02T12:50:02.308Z,1.40
2022-11-02T12:53:02.522Z,1.53
2022-11-02T12:55:53.069Z,1.33
2022-11-02T12:58:40.857Z,1.70
2022-11-02T13:01:37.669Z,1.30
2022-11-02T13:04:36.827Z,1.23
2022-11-02T13:07:57.031Z,1.60
2022-11-02T13:10:52.347Z,1.40
2022-11-02T13:13:46.946Z,1.50
2022-11-02T13:16:46.268Z,1.13
2022-11-02T13:19:41.914Z,1.30
2022-11-02T13:22:34.010Z,1.20
2022-11-02T13:25:30.206Z,1.43
2022-11-02T13:28:43.107Z,1.40
2022-11-02T13:31:34.202Z,1.33
2022-11-02T13:34:35.105Z,1.47
2022-11-02T13:37:28.920Z,1.37
2022-11-02T13:40:25.106Z,1.40
2022-11-02T13:43:29.262Z,1.17
2022-11-02T13:46:38.684Z,1.07
2022-11-02T13:49:34.156Z,1.10
2022-11-02T13:52:27.576Z,1.13
2022-11-02T13:55:45.962Z,1.00
2022-11-02T13:58:37.310Z,1.30
2022-11-02T14:01:24.334Z,1.20
2022-11-02T14:04:12.609Z,1.20
2022-11-02T14:07:00.988Z,1.20
2022-11-02T14:09:46.095Z,1.30
2022-11-02T14:12:42.190Z,1.57
2022-11-02T14:15:30.325Z,1.17
2022-11-02T14:18:28.541Z,1.57
2022-11-02T14:21:41.893Z,1.00
2022-11-02T14:24:36.201Z,1.10
2022-11-02T14:27:22.664Z,1.10
2022-11-02T14:30:40.260Z,1.30
2022-11-02T14:33:48.598Z,1.30
2022-11-02T14:36:45.806Z,1.33
2022-11-02T14:39:49.559Z,1.43
2022-11-02T14:42:43.580Z,1.47
2022-11-02T14:45:50.661Z,1.10
2022-11-02T14:48:47.549Z,1.33
2022-11-02T14:51:37.330Z,1.60
2022-11-02T14:54:22.983Z,1.43
2022-11-02T14:57:29.698Z,1.30
2022-11-02T15:00:19.098Z,1.10
2022-11-02T15:03:11.429Z,1.50
2022-11-02T15:06:06.362Z,1.20
2022-11-02T15:08:57.668Z,1.63
2022-11-02T15:11:57.122Z,1.20
2022-11-02T15:14:42.547Z,1.10
2022-11-02T15:17:27.262Z,1.33
2022-11-02T15:20:15.259Z,1.60
2022-11-02T15:23:21.204Z,2.13
2022-11-02T15:26:20.172Z,1.17
2022-11-02T15:29:06.840Z,1.37
2022-11-02T15:31:55.864Z,1.47
2022-11-02T15:34:44.022Z,1.33
2022-11-02T15:37:37.329Z,1.50
2022-11-02T15:40:46.310Z,1.50
2022-11-02T15:43:45.405Z,0.97
2022-11-02T15:46:43.260Z,1.10
2022-11-02T15:49:36.033Z,1.40
2022-11-02T15:53:16.543Z,2.00
2022-11-02T15:56:14.049Z,1.60
2022-11-02T15:59:15.954Z,1.53
2022-11-02T16:02:17.889Z,1.50
2022-11-02T16:05:06.032Z,1.07
2022-11-02T16:11:13.128Z,1.10
2022-11-02T16:14:18.522Z,1.07
2022-11-02T16:17:03.662Z,1.20
2022-11-02T16:19:49.267Z,1.67
2022-11-02T16:22:34.627Z,1.27
2022-11-02T16:25:46.893Z,1.10
2022-11-02T16:28:34.254Z,1.40
2022-11-02T16:31:22.186Z,1.40
2022-11-02T16:34:21.214Z,1.17
2022-11-02T16:37:10.336Z,0.90
2022-11-02T16:39:56.717Z,1.33
2022-11-02T16:42:45.843Z,1.30
2022-11-02T16:45:43.245Z,1.67
2022-11-02T16:48:31.402Z,1.40
2022-11-02T16:51:18.799Z,1.20
2022-11-02T16:54:29.308Z,1.40
2022-11-02T16:57:19.923Z,1.20
2022-11-02T17:00:15.924Z,1.00
2022-11-02T17:03:08.374Z,1.30
2022-11-02T17:05:54.393Z,1.17
2022-11-02T17:08:41.147Z,1.40
2022-11-02T17:11:34.235Z,1.30
2022-11-02T17:14:21.550Z,1.57
2022-11-02T17:17:27.148Z,1.43
2022-11-02T17:20:15.127Z,1.20
2022-11-02T17:23:02.200Z,1.47
2022-11-02T17:25:47.190Z,1.10
2022-11-02T17:28:35.224Z,1.47
2022-11-02T17:31:28.925Z,1.40
2022-11-02T17:34:18.886Z,1.50
2022-11-02T17:37:05.844Z,1.50
2022-11-02T17:39:51.127Z,1.47
2022-11-02T17:42:54.568Z,1.30
2022-11-02T17:45:39.777Z,1.47
2022-11-02T17:48:28.776Z,1.57
2022-11-02T17:51:15.282Z,1.53
2022-11-02T17:54:00.078Z,1.30
2022-11-02T17:56:45.079Z,1.30
2022-11-02T17:59:30.052Z,1.23
2022-11-02T18:02:16.176Z,1.40
2022-11-02T18:05:01.353Z,1.57
2022-11-02T18:07:46.339Z,1.97
2022-11-02T18:10:38.049Z,1.80
2022-11-02T18:13:24.632Z,1.27
2022-11-02T18:16:09.727Z,1.60
2022-11-02T18:18:54.694Z,1.63
2022-11-02T18:21:39.771Z,1.57
2022-11-02T18:24:25.198Z,1.70
2022-11-02T18:27:10.354Z,2.00
2022-11-02T18:29:55.200Z,1.90
2022-11-02T18:32:41.613Z,1.90
2022-11-02T18:35:26.510Z,2.10
2022-11-02T18:38:11.860Z,1.83
2022-11-02T18:40:57.116Z,2.00
2022-11-02T18:43:42.178Z,1.67
2022-11-02T18:46:30.601Z,2.00
2022-11-02T18:49:16.277Z,1.73
2022-11-02T18:52:01.166Z,2.30
2022-11-02T18:54:46.279Z,2.73
2022-11-02T18:57:32.493Z,2.73
2022-11-02T19:00:18.014Z,2.17
2022-11-02T19:03:03.202Z,2.63
2022-11-02T19:06:07.061Z,2.80
2022-11-02T19:09:11.044Z,2.73
2022-11-02T19:12:14.774Z,2.33
2022-11-02T19:14:59.840Z,2.50
2022-11-02T19:17:45.189Z,2.93
2022-11-02T19:20:30.386Z,2.77
2022-11-02T19:23:15.382Z,3.23
2022-11-02T19:26:00.715Z,2.63
2022-11-02T19:28:45.574Z,2.77
2022-11-02T19:31:30.735Z,3.10
2022-11-02T19:34:15.945Z,2.60
2022-11-02T19:37:01.123Z,2.90
2022-11-02T19:39:46.042Z,2.97
2022-11-02T19:42:31.150Z,2.80
2022-11-02T19:45:19.042Z,2.63
2022-11-02T19:48:04.178Z,2.70
2022-11-02T19:50:49.725Z,2.97
2022-11-02T19:53:35.772Z,3.10
2022-11-02T19:56:22.283Z,3.40
2022-11-02T19:59:07.621Z,3.37
2022-11-02T20:01:52.882Z,3.03
2022-11-02T20:04:42.305Z,2.50
2022-11-02T20:07:27.882Z,2.93
2022-11-02T20:10:13.458Z,2.90
2022-11-02T20:12:58.535Z,2.60
2022-11-02T20:15:43.482Z,2.97
2022-11-02T20:18:29.198Z,2.80
2022-11-02T20:21:17.188Z,3.07
2022-11-02T20:24:02.985Z,3.10
2022-11-02T20:26:47.884Z,3.43
2022-11-02T20:29:33.174Z,2.90
2022-11-02T20:32:20.300Z,2.73
2022-11-02T20:35:09.712Z,2.90
2022-11-02T20:37:57.713Z,2.83
2022-11-02T20:40:42.531Z,2.77
2022-11-02T20:43:27.565Z,3.27
2022-11-02T20:46:41.823Z,2.80
2022-11-02T20:52:33.934Z,3.03
2022-11-02T20:55:18.906Z,3.23
2022-11-02T20:58:03.681Z,3.23
2022-11-02T21:00:49.655Z,3.10
2022-11-02T21:03:35.012Z,3.50
2022-11-02T21:06:19.951Z,3.30
2022-11-02T21:09:09.109Z,2.87
2022-11-02T21:12:23.290Z,3.10
2022-11-02T21:15:08.671Z,3.50
2022-11-02T21:17:53.774Z,3.00
2022-11-02T21:20:38.885Z,3.23
2022-11-02T21:23:23.917Z,3.40
2022-11-02T21:26:10.242Z,3.10
2022-11-02T21:28:55.104Z,3.07
2022-11-02T21:31:39.923Z,2.80
2022-11-02T21:34:25.182Z,2.83
2022-11-02T21:37:10.458Z,3.23
2022-11-02T21:39:55.646Z,3.20
2022-11-02T21:42:40.730Z,3.13
2022-11-02T21:45:26.496Z,2.60
2022-11-02T21:48:11.955Z,3.17
2022-11-02T21:51:00.624Z,3.40
2022-11-02T21:53:47.484Z,3.70
2022-11-02T21:56:34.150Z,2.83
2022-11-02T21:59:19.003Z,2.97
2022-11-02T22:02:04.049Z,3.10
2022-11-02T22:04:53.428Z,3.13
2022-11-02T22:07:58.679Z,3.07
2022-11-02T22:10:43.473Z,2.60
2022-11-02T22:13:34.272Z,2.63
2022-11-02T22:16:20.688Z,2.80
2022-11-02T22:19:10.786Z,2.97
2022-11-02T22:21:57.633Z,3.13
2022-11-02T22:24:44.928Z,3.57
2022-11-02T22:27:30.165Z,2.77
2022-11-02T22:30:15.271Z,3.17
2022-11-02T22:33:00.436Z,2.97
2022-11-02T22:35:45.332Z,2.80
2022-11-02T22:38:48.554Z,3.30
2022-11-02T22:41:40.445Z,3.10
2022-11-02T22:44:25.319Z,3.10
2022-11-02T22:47:10.622Z,3.30
2022-11-02T22:49:55.573Z,2.70
2022-11-02T22:52:40.453Z,3.07
2022-11-02T22:55:25.423Z,3.00
2022-11-02T22:58:10.252Z,3.07
2022-11-02T23:00:55.851Z,3.23
2022-11-02T23:03:41.051Z,2.80
2022-11-02T23:06:26.106Z,3.23
2022-11-02T23:09:12.018Z,2.50
2022-11-02T23:11:57.013Z,2.80
2022-11-02T23:14:41.921Z,3.40
2022-11-02T23:17:26.789Z,2.93
2022-11-02T23:20:12.171Z,2.90
2022-11-02T23:23:18.828Z,2.77
2022-11-02T23:26:04.482Z,3.00
2022-11-02T23:29:24.917Z,3.00
2022-11-02T23:32:41.487Z,2.80
2022-11-02T23:35:44.961Z,2.97
2022-11-02T23:38:48.781Z,2.90
2022-11-02T23:41:36.756Z,2.43
2022-11-02T23:44:21.999Z,3.00
2022-11-02T23:47:07.081Z,2.90
2022-11-02T23:49:52.207Z,3.20
2022-11-02T23:52:56.040Z,2.40
2022-11-02T23:55:59.886Z,2.97
2022-11-02T23:58:46.101Z,2.80
